Time;durP1;ratioP1;P1;durP2;ratioP2;P2;SDS_P1;SDS_P2;PMS_P1;PMS_P2;Temp;Humidity;BMP_temperature;BMP_pressure;BME280_temperature;BME280_humidity;BME280_pressure;Samples;Min_cycle;Max_cycle;Signal;HPM_P1;HPM_P2
2023/08/29 00:00:39;;;;;;;12.32;3.25;;;;;;;25.55;41.23;93911.47;4169737;28;20129;-74
2023/08/29 00:02:41;;;;;;;5.55;3.45;;;;;;;25.55;41.12;93916.81;4160394;28;20453;-73
2023/08/29 00:04:43;;;;;;;8.85;2.90;;;;;;;25.47;41.44;93904.00;4192064;28;20431;-75
2023/08/29 00:06:45;;;;;;;6.55;3.13;;;;;;;25.50;41.37;93908.78;4174123;28;20060;-75
2023/08/29 00:08:47;;;;;;;8.45;3.40;;;;;;;25.52;41.52;93904.75;4193579;28;20094;-74
2023/08/29 00:10:55;;;;;;;8.70;3.55;;;;;;;25.58;41.05;93912.81;4178664;28;20132;-76
2023/08/29 00:12:57;;;;;;;10.98;5.07;;;;;;;25.62;41.12;93908.50;4177475;28;20051;-74
2023/08/29 00:14:59;;;;;;;5.45;3.83;;;;;;;25.59;41.16;93909.84;4180763;28;20165;-76
2023/08/29 00:17:01;;;;;;;7.57;3.33;;;;;;;25.56;41.25;93907.72;4182642;28;20052;-74
2023/08/29 00:19:03;;;;;;;8.07;3.40;;;;;;;25.50;41.30;93903.44;4186673;28;20121;-75
2023/08/29 00:21:05;;;;;;;6.07;3.10;;;;;;;25.50;41.28;93900.75;4195975;28;20489;-73
2023/08/29 00:23:09;;;;;;;4.80;3.33;;;;;;;25.44;41.34;93902.63;4193940;28;20123;-74
2023/08/29 00:25:10;;;;;;;11.13;3.53;;;;;;;25.44;41.62;93907.19;4195135;28;20064;-76
2023/08/29 00:27:13;;;;;;;5.13;3.30;;;;;;;25.43;41.45;93911.75;4194542;28;20049;-76
2023/08/29 00:29:15;;;;;;;6.07;3.00;;;;;;;25.42;41.60;93903.97;4185126;28;20546;-75
2023/08/29 00:31:17;;;;;;;8.82;3.47;;;;;;;25.39;41.56;93902.66;4168765;28;20103;-74
2023/08/29 00:33:19;;;;;;;7.93;3.47;;;;;;;25.39;41.35;93896.50;4183758;28;20053;-76
2023/08/29 00:35:21;;;;;;;4.68;3.38;;;;;;;25.30;41.77;93899.72;4178230;28;20127;-76
2023/08/29 00:37:22;;;;;;;7.82;3.30;;;;;;;25.28;41.97;93901.06;4195992;28;20459;-76
2023/08/29 00:39:24;;;;;;;5.95;3.70;;;;;;;25.28;42.18;93901.88;4188578;28;20056;-75
2023/08/29 00:41:27;;;;;;;6.05;3.40;;;;;;;25.28;41.80;93903.75;4184731;28;20163;-74
2023/08/29 00:43:29;;;;;;;6.38;3.60;;;;;;;25.27;41.95;93900.25;4192321;28;20543;-75
2023/08/29 00:45:36;;;;;;;4.68;3.50;;;;;;;25.28;41.95;93901.88;4195701;28;20068;-73
2023/08/29 00:47:39;;;;;;;4.82;3.20;;;;;;;25.23;42.17;93898.38;4194534;28;20127;-74
2023/08/29 00:49:41;;;;;;;5.03;3.30;;;;;;;25.21;42.13;93905.88;4194692;28;20044;-73
2023/08/29 00:51:43;;;;;;;7.30;3.65;;;;;;;25.17;42.29;93896.72;4173003;28;20504;-73
2023/08/29 00:53:44;;;;;;;6.43;3.40;;;;;;;25.14;42.54;93898.09;4192469;28;20474;-76
2023/08/29 00:55:46;;;;;;;8.02;3.47;;;;;;;25.07;42.58;93903.72;4195062;28;20410;-73
2023/08/29 00:57:55;;;;;;;4.35;3.50;;;;;;;25.02;42.72;93908.28;4189834;28;20045;-74
2023/08/29 00:59:57;;;;;;;4.88;3.20;;;;;;;24.94;42.91;93902.38;4198458;28;20451;-76
2023/08/29 01:01:59;;;;;;;8.10;3.78;;;;;;;24.90;42.93;93903.19;4167492;28;20045;-72
2023/08/29 01:04:03;;;;;;;6.95;3.63;;;;;;;24.80;43.02;93909.34;4182859;28;20403;-76
2023/08/29 01:06:05;;;;;;;7.00;3.70;;;;;;;24.81;43.10;93899.44;4187876;28;20533;-75
2023/08/29 01:08:07;;;;;;;4.38;3.25;;;;;;;24.79;43.28;93899.69;4196547;28;20064;-74
2023/08/29 01:10:09;;;;;;;6.10;3.47;;;;;;;24.75;43.34;93895.94;4174098;28;20056;-75
2023/08/29 01:12:19;;;;;;;9.73;3.47;;;;;;;24.67;43.32;93888.44;4159046;28;20057;-75
2023/08/29 01:14:32;;;;;;;6.85;3.28;;;;;;;24.72;43.11;93893.81;4195794;28;20063;-75
2023/08/29 01:16:38;;;;;;;6.38;3.78;;;;;;;24.76;43.42;93899.41;4161324;28;20111;-74
2023/08/29 01:18:40;;;;;;;7.93;3.28;;;;;;;24.72;43.22;93897.28;4162559;28;20124;-74
2023/08/29 01:20:42;;;;;;;6.93;3.22;;;;;;;24.72;43.53;93880.41;4178155;28;20053;-76
2023/08/29 01:23:02;;;;;;;7.65;3.80;;;;;;;24.74;43.40;93872.91;4167600;28;20055;-76
2023/08/29 01:25:23;;;;;;;8.02;3.50;;;;;;;24.77;43.50;93863.53;4178924;28;20145;-74
2023/08/29 01:27:25;;;;;;;6.18;3.25;;;;;;;24.79;43.29;93861.41;4173815;28;20053;-76
2023/08/29 01:29:30;;;;;;;6.00;3.50;;;;;;;24.76;43.35;93861.91;4160811;28;20132;-75
2023/08/29 01:31:33;;;;;;;5.97;3.95;;;;;;;24.70;43.50;93861.94;4194567;28;20052;-75
2023/08/29 01:33:35;;;;;;;5.07;3.20;;;;;;;24.61;43.59;93858.19;4177517;28;20045;-75
2023/08/29 01:35:42;;;;;;;6.88;3.92;;;;;;;24.53;43.77;93856.81;4176159;28;20494;-74
2023/08/29 01:37:44;;;;;;;5.75;3.40;;;;;;;24.56;43.75;93860.03;4166766;28;20052;-75
2023/08/29 01:39:46;;;;;;;7.60;3.38;;;;;;;24.56;43.97;93854.69;4192854;28;20186;-76
2023/08/29 01:41:48;;;;;;;4.63;3.42;;;;;;;24.57;43.89;93849.06;4183728;28;20163;-75
2023/08/29 01:43:50;;;;;;;6.40;3.40;;;;;;;24.56;44.10;93855.47;4185149;28;20242;-74
2023/08/29 01:45:52;;;;;;;7.43;3.33;;;;;;;24.52;43.87;93860.59;4163151;28;20053;-74
2023/08/29 01:47:54;;;;;;;5.55;3.25;;;;;;;24.49;44.09;93861.09;4165347;28;20049;-74
2023/08/29 01:49:56;;;;;;;7.97;3.70;;;;;;;24.47;44.11;93857.84;4190259;28;20053;-73
2023/08/29 01:51:59;;;;;;;3.83;3.15;;;;;;;24.45;44.01;93862.66;4158804;28;20260;-72
2023/08/29 01:54:00;;;;;;;7.85;3.53;;;;;;;24.47;44.14;93867.78;4182664;28;20048;-74
2023/08/29 01:56:03;;;;;;;4.93;3.63;;;;;;;24.43;44.24;93861.34;4183595;28;20471;-73
2023/08/29 01:58:05;;;;;;;6.63;3.50;;;;;;;24.41;44.04;93858.13;4176612;28;20132;-72
2023/08/29 02:00:08;;;;;;;8.55;3.65;;;;;;;24.41;44.47;93861.59;4168796;28;20049;-75
2023/08/29 02:02:10;;;;;;;5.85;3.47;;;;;;;24.40;44.47;93862.69;4194283;28;20049;-74
2023/08/29 02:04:12;;;;;;;5.53;3.35;;;;;;;24.38;44.49;93864.00;4177317;28;20048;-75
2023/08/29 02:06:14;;;;;;;4.93;3.65;;;;;;;24.40;44.42;93861.88;4190271;28;20083;-74
2023/08/29 02:08:15;;;;;;;7.28;3.92;;;;;;;24.39;44.45;93858.38;4185808;28;20040;-76
2023/08/29 02:10:17;;;;;;;6.03;3.63;;;;;;;24.41;44.31;93863.47;4176236;28;20064;-76
2023/08/29 02:12:19;;;;;;;7.55;3.45;;;;;;;24.44;44.33;93862.97;4193917;28;20044;-74
2023/08/29 02:14:21;;;;;;;6.88;3.78;;;;;;;24.41;44.21;93872.31;4175498;28;20049;-75
2023/08/29 02:16:24;;;;;;;5.85;4.00;;;;;;;24.38;44.53;93867.50;4176851;28;20051;-74
2023/08/29 02:18:28;;;;;;;6.75;3.88;;;;;;;24.34;44.59;93869.09;4188933;28;20054;-74
2023/08/29 02:20:29;;;;;;;7.80;3.80;;;;;;;24.27;44.61;93868.53;4185721;28;20049;-75
2023/08/29 02:22:31;;;;;;;7.53;3.75;;;;;;;24.29;44.67;93863.72;4190726;28;20573;-73
2023/08/29 02:24:33;;;;;;;5.70;3.88;;;;;;;24.28;44.73;93867.47;4190553;28;20041;-73
2023/08/29 02:26:35;;;;;;;7.07;3.88;;;;;;;24.28;44.53;93862.91;4173735;28;20051;-75
2023/08/29 02:28:38;;;;;;;6.78;3.60;;;;;;;24.26;44.65;93867.75;4178039;28;20144;-76
2023/08/29 02:30:39;;;;;;;6.47;4.20;;;;;;;24.23;44.73;93857.56;4173195;28;20045;-74
2023/08/29 02:32:42;;;;;;;9.55;3.88;;;;;;;24.20;44.77;93858.09;4191579;28;20086;-73
2023/08/29 02:34:44;;;;;;;4.97;3.70;;;;;;;24.14;44.97;93847.66;4186347;28;20440;-75
2023/08/29 02:36:46;;;;;;;5.95;3.30;;;;;;;24.10;45.31;93853.50;4171421;28;20053;-75
2023/08/29 02:38:48;;;;;;;7.97;4.00;;;;;;;24.12;45.35;93851.38;4180764;28;20117;-74
2023/08/29 02:40:49;;;;;;;7.88;3.60;;;;;;;24.09;45.27;93851.91;4190299;28;20075;-75
2023/08/29 02:42:51;;;;;;;8.10;3.60;;;;;;;24.03;45.53;93846.81;4186020;28;20147;-74
2023/08/29 02:44:53;;;;;;;6.63;3.60;;;;;;;24.04;45.48;93854.56;4193674;28;20502;-73
2023/08/29 02:46:54;;;;;;;6.82;3.80;;;;;;;23.97;45.75;93845.19;4188118;28;20123;-78
2023/08/29 02:48:56;;;;;;;6.57;3.60;;;;;;;23.94;45.56;93854.56;4175704;28;20061;-75
2023/08/29 02:50:58;;;;;;;6.72;3.78;;;;;;;23.92;45.64;93848.66;4184104;28;20064;-74
2023/08/29 02:53:00;;;;;;;5.20;3.88;;;;;;;23.91;45.93;93850.50;4189682;28;20071;-75
2023/08/29 02:55:03;;;;;;;9.38;3.90;;;;;;;23.92;45.89;93851.34;4162541;28;20045;-74
2023/08/29 02:57:04;;;;;;;13.90;9.50;;;;;;;23.97;45.77;93854.00;4173962;28;20131;-73
2023/08/29 02:59:06;;;;;;;9.77;6.05;;;;;;;23.90;45.71;93854.25;4193773;28;20487;-73
2023/08/29 03:01:11;;;;;;;9.60;5.93;;;;;;;23.84;45.95;93857.19;4193550;28;20147;-76
2023/08/29 03:03:13;;;;;;;10.02;5.22;;;;;;;23.81;46.32;93869.22;4175951;28;20060;-75
2023/08/29 03:05:16;;;;;;;10.45;5.05;;;;;;;23.81;45.83;93866.53;4173470;28;20110;-74
2023/08/29 03:07:17;;;;;;;9.35;4.68;;;;;;;23.76;45.94;93868.38;4196361;28;20055;-76
2023/08/29 03:09:20;;;;;;;8.65;4.88;;;;;;;23.78;46.34;93860.91;4178507;28;20459;-75
2023/08/29 03:11:21;;;;;;;7.65;4.70;;;;;;;23.80;45.97;93859.56;4189696;28;20051;-75
2023/08/29 03:13:23;;;;;;;9.43;5.40;;;;;;;23.85;46.13;93864.94;4176483;28;20044;-75
2023/08/29 03:15:26;;;;;;;7.47;4.45;;;;;;;23.86;46.06;93857.72;4193033;28;20078;-74
2023/08/29 03:17:27;;;;;;;5.35;4.10;;;;;;;23.86;46.06;93849.72;4181502;28;20055;-75
2023/08/29 03:19:29;;;;;;;9.05;4.38;;;;;;;23.83;46.17;93852.88;4184840;28;20055;-75
2023/08/29 03:21:31;;;;;;;7.85;4.00;;;;;;;23.85;46.02;93848.88;4186683;28;20468;-75
2023/08/29 03:23:34;;;;;;;5.60;4.18;;;;;;;23.87;46.25;93848.63;4190692;28;20360;-74
2023/08/29 03:25:36;;;;;;;;;;;;;;;23.84;45.97;93844.59;4174399;28;20056;-76
2023/08/29 03:27:38;;;;;;;8.30;3.95;;;;;;;23.88;45.91;93844.91;4186781;28;19920;-74
2023/08/29 03:29:40;;;;;;;7.10;4.10;;;;;;;23.90;45.63;93843.56;4175176;28;20073;-74
2023/08/29 03:31:42;;;;;;;6.88;3.90;;;;;;;23.91;45.89;93841.69;4191955;28;20052;-76
2023/08/29 03:33:44;;;;;;;6.93;3.97;;;;;;;23.88;46.03;93847.56;4169829;28;20412;-74
2023/08/29 03:35:46;;;;;;;6.72;3.85;;;;;;;23.88;46.26;93842.22;4176949;28;20045;-74
2023/08/29 03:37:47;;;;;;;6.47;4.05;;;;;;;23.88;46.17;93844.91;4196290;28;20048;-76
2023/08/29 03:39:49;;;;;;;5.68;3.55;;;;;;;23.87;46.29;93845.94;4177202;28;20132;-75
2023/08/29 03:41:51;;;;;;;19.25;4.10;;;;;;;23.85;46.19;93846.19;4193015;28;20087;-74
2023/08/29 03:43:53;;;;;;;5.88;4.43;;;;;;;23.90;45.83;93845.44;4181198;28;20075;-75
2023/08/29 03:46:05;;;;;;;7.93;3.83;;;;;;;23.95;45.75;93844.66;4168186;28;20512;-74
2023/08/29 03:48:07;;;;;;;6.93;3.72;;;;;;;23.97;45.72;93843.31;4195782;28;20060;-74
2023/08/29 03:50:25;;;;;;;7.03;4.38;;;;;;;23.99;46.17;93840.38;4186246;28;20399;-74
2023/08/29 03:52:27;;;;;;;9.57;4.30;;;;;;;23.96;45.90;93830.19;4189708;28;20148;-75
2023/08/29 03:54:29;;;;;;;7.78;3.80;;;;;;;23.97;45.87;93831.81;4196742;28;20052;-75
2023/08/29 03:56:33;;;;;;;7.57;4.32;;;;;;;23.97;45.85;93824.59;4197922;28;20048;-74
2023/08/29 03:58:35;;;;;;;9.57;4.38;;;;;;;23.95;46.14;93826.72;4183213;28;20052;-74
2023/08/29 04:00:37;;;;;;;9.18;4.50;;;;;;;23.90;46.00;93832.88;4172088;28;20053;-78
2023/08/29 04:02:39;;;;;;;9.27;3.97;;;;;;;23.86;46.21;93831.78;4195861;28;20238;-78
2023/08/29 04:04:44;;;;;;;6.45;4.32;;;;;;;23.86;46.53;93831.78;4197017;28;20051;-75
2023/08/29 04:06:46;;;;;;;8.32;4.28;;;;;;;23.84;46.38;93827.75;4196136;28;20068;-75
2023/08/29 04:08:47;;;;;;;8.43;4.20;;;;;;;23.84;46.44;93825.88;4200080;28;20064;-75
2023/08/29 04:10:49;;;;;;;9.38;4.68;;;;;;;23.86;46.58;93823.75;4197690;28;20053;-75
2023/08/29 04:12:51;;;;;;;9.77;4.30;;;;;;;23.86;46.44;93825.63;4181570;28;20113;-74
2023/08/29 04:14:53;;;;;;;9.32;4.25;;;;;;;23.93;46.49;93834.22;4192828;28;20052;-73
2023/08/29 04:16:55;;;;;;;6.38;4.40;;;;;;;23.99;45.85;93835.84;4195306;28;20040;-75
2023/08/29 04:18:57;;;;;;;6.45;4.55;;;;;;;24.07;45.85;93829.97;4182525;28;20280;-75
2023/08/29 04:20:59;;;;;;;5.03;4.13;;;;;;;24.13;45.56;93830.78;4198993;28;20044;-75
2023/08/29 04:23:06;;;;;;;8.68;4.25;;;;;;;24.15;45.72;93833.19;4193929;28;20091;-77
2023/08/29 04:25:08;;;;;;;8.07;4.40;;;;;;;24.15;45.71;93828.63;4163427;28;20099;-75
2023/08/29 04:27:11;;;;;;;8.68;4.75;;;;;;;24.14;45.81;93826.25;4198241;28;20127;-75
2023/08/29 04:29:13;;;;;;;9.55;5.05;;;;;;;24.18;45.58;93827.28;4197981;28;20347;-76
2023/08/29 04:31:17;;;;;;;8.68;4.57;;;;;;;24.17;45.98;93831.06;4196701;28;20055;-76
2023/08/29 04:33:19;;;;;;;8.13;4.47;;;;;;;24.08;46.27;93826.22;4198876;28;20106;-77
2023/08/29 04:35:21;;;;;;;9.00;5.05;;;;;;;24.09;46.38;93818.97;4202887;28;20088;-75
2023/08/29 04:37:24;;;;;;;16.65;4.90;;;;;;;24.09;45.92;93824.34;4200350;28;20427;-76
2023/08/29 04:39:26;;;;;;;8.18;4.63;;;;;;;24.10;45.86;93833.97;4176900;28;20468;-75
2023/08/29 04:41:27;;;;;;;12.00;4.50;;;;;;;24.15;45.75;93836.66;4176819;28;20045;-78
2023/08/29 04:43:29;;;;;;;9.35;4.93;;;;;;;24.23;45.71;93835.34;4184080;28;20488;-76
2023/08/29 04:45:32;;;;;;;11.25;5.40;;;;;;;24.18;45.64;93833.47;4182474;28;20045;-75
2023/08/29 04:47:35;;;;;;;13.20;5.05;;;;;;;24.18;45.68;93827.28;4192709;28;20052;-75
2023/08/29 04:49:37;;;;;;;8.80;4.57;;;;;;;24.16;46.12;93832.13;4192399;28;20226;-77
2023/08/29 04:51:38;;;;;;;11.50;4.75;;;;;;;24.21;45.89;93837.50;4184811;28;20051;-75
2023/08/29 04:53:40;;;;;;;15.80;5.10;;;;;;;24.24;46.06;93837.78;4178626;28;20425;-75
2023/08/29 04:55:42;;;;;;;9.88;4.95;;;;;;;24.30;45.88;93831.34;4183753;28;20053;-75
2023/08/29 04:57:43;;;;;;;11.60;4.60;;;;;;;24.38;45.60;93832.69;4182675;28;20049;-77
2023/08/29 04:59:45;;;;;;;9.43;4.82;;;;;;;24.44;45.45;93822.81;4185980;28;20064;-75
2023/08/29 05:01:47;;;;;;;7.07;4.53;;;;;;;24.51;45.74;93812.66;4194199;28;20048;-76
2023/08/29 05:03:51;;;;;;;17.63;5.18;;;;;;;24.56;46.15;93807.28;4155177;28;20615;-75
2023/08/29 05:05:53;;;;;;;7.30;4.20;;;;;;;24.58;45.60;93804.34;4192157;28;20315;-78
2023/08/29 05:07:55;;;;;;;6.90;4.53;;;;;;;24.71;45.45;93809.16;4193334;28;20340;-77
2023/08/29 05:09:57;;;;;;;10.02;4.32;;;;;;;24.84;45.04;93807.81;4177403;28;20049;-75
2023/08/29 05:11:59;;;;;;;7.05;4.40;;;;;;;24.91;45.03;93801.13;4193816;28;20131;-77
2023/08/29 05:14:00;;;;;;;8.43;4.72;;;;;;;25.01;44.72;93805.66;4179231;28;20080;-76
2023/08/29 05:16:03;;;;;;;11.05;4.63;;;;;;;25.09;44.60;93807.00;4175524;28;20124;-75
2023/08/29 05:18:05;;;;;;;9.73;4.75;;;;;;;25.10;44.45;93814.75;4168105;28;20045;-78
2023/08/29 05:20:09;;;;;;;13.03;5.10;;;;;;;25.12;44.41;93812.63;4197143;28;20612;-76
2023/08/29 05:22:11;;;;;;;9.18;5.45;;;;;;;25.22;43.97;93811.00;4187947;28;20276;-76
2023/08/29 05:24:13;;;;;;;7.93;4.93;;;;;;;25.23;43.80;93804.56;4188967;28;20100;-74
2023/08/29 05:26:15;;;;;;;12.30;5.32;;;;;;;25.25;43.76;93803.25;4192201;28;20044;-75
2023/08/29 05:28:16;;;;;;;16.25;4.85;;;;;;;25.31;43.64;93802.13;4185170;28;20080;-76
2023/08/29 05:30:18;;;;;;;14.15;4.90;;;;;;;25.41;43.63;93801.31;4184419;28;20071;-75
2023/08/29 05:32:20;;;;;;;9.45;5.07;;;;;;;25.44;43.55;93798.06;4195908;28;20045;-74
2023/08/29 05:34:23;;;;;;;12.50;4.85;;;;;;;25.54;43.36;93802.59;4195127;28;20049;-78
2023/08/29 05:36:25;;;;;;;7.50;4.72;;;;;;;25.60;43.49;93798.81;4191402;28;20611;-75
2023/08/29 05:38:27;;;;;;;8.27;4.88;;;;;;;25.59;43.33;93801.78;4195008;28;20345;-75
2023/08/29 05:40:29;;;;;;;11.48;5.25;;;;;;;25.51;43.56;93805.81;4195267;28;20063;-77
2023/08/29 05:42:35;;;;;;;13.20;5.32;;;;;;;25.49;44.10;93818.69;4195310;28;20048;-76
2023/08/29 05:44:38;;;;;;;14.00;5.53;;;;;;;25.50;44.19;93812.25;4185100;28;20056;-76
2023/08/29 05:46:39;;;;;;;11.90;5.90;;;;;;;25.50;43.96;93815.75;4172166;28;20045;-74
2023/08/29 05:48:41;;;;;;;11.63;5.72;;;;;;;25.49;43.88;93810.66;4184026;28;20094;-77
2023/08/29 05:50:43;;;;;;;13.80;5.07;;;;;;;25.45;44.10;93806.94;4195691;28;20056;-77
2023/08/29 05:52:45;;;;;;;12.20;5.30;;;;;;;25.33;44.18;93797.28;4195365;28;20055;-75
2023/08/29 05:54:46;;;;;;;7.50;4.70;;;;;;;25.24;43.88;93804.28;4181544;28;20487;-76
2023/08/29 05:56:48;;;;;;;17.08;6.93;;;;;;;25.06;44.10;93804.84;4195361;28;20113;-78
2023/08/29 05:58:50;;;;;;;6.53;4.00;;;;;;;25.05;44.04;93813.97;4193151;28;20561;-76
2023/08/29 06:00:52;;;;;;;8.20;3.78;;;;;;;25.07;44.23;93812.59;4173759;28;20053;-77
2023/08/29 06:02:53;;;;;;;7.10;4.55;;;;;;;25.08;44.12;93810.72;4184356;28;20409;-74
2023/08/29 06:04:55;;;;;;;9.57;4.45;;;;;;;25.06;44.21;93805.66;4189794;28;20052;-76
2023/08/29 06:06:57;;;;;;;13.80;5.53;;;;;;;25.00;44.16;93808.63;4188537;28;20125;-75
2023/08/29 06:08:59;;;;;;;9.85;6.05;;;;;;;25.13;44.42;93816.88;4191170;28;20052;-78
2023/08/29 06:11:03;;;;;;;7.15;4.00;;;;;;;25.32;43.94;93825.19;4167361;28;20136;-77
2023/08/29 06:13:05;;;;;;;7.10;4.07;;;;;;;25.54;43.51;93824.84;4183105;28;20053;-76
2023/08/29 06:15:07;;;;;;;12.10;4.68;;;;;;;25.74;42.93;93818.59;4194555;28;20131;-76
2023/08/29 06:17:09;;;;;;;9.90;4.35;;;;;;;25.82;42.81;93821.81;4190135;28;20064;-75
2023/08/29 06:19:11;;;;;;;7.38;4.30;;;;;;;25.65;42.48;93814.09;4189309;28;20051;-76
2023/08/29 06:21:13;;;;;;;9.32;4.40;;;;;;;25.52;42.86;93812.78;4167651;28;20122;-76
2023/08/29 06:23:14;;;;;;;6.88;3.80;;;;;;;25.67;42.70;93812.72;4183241;28;20086;-76
2023/08/29 06:25:16;;;;;;;7.55;4.07;;;;;;;25.61;42.95;93813.03;4193727;28;20074;-76
2023/08/29 06:27:18;;;;;;;8.13;4.28;;;;;;;25.65;42.98;93809.53;4187013;28;20155;-75
2023/08/29 06:29:20;;;;;;;18.05;4.63;;;;;;;25.70;42.82;93819.41;4189524;28;20080;-76
2023/08/29 06:31:21;;;;;;;9.88;4.45;;;;;;;25.75;42.85;93817.53;4165828;28;20096;-76
2023/08/29 06:33:24;;;;;;;9.75;4.30;;;;;;;25.78;42.59;93823.44;4185279;28;20064;-77
2023/08/29 06:35:26;;;;;;;6.85;4.30;;;;;;;25.90;42.73;93818.56;4193252;28;20066;-76
2023/08/29 06:37:27;;;;;;;6.93;4.07;;;;;;;26.01;42.43;93819.31;4162784;28;20056;-80
2023/08/29 06:39:29;;;;;;;7.40;4.15;;;;;;;26.21;41.95;93813.03;4180823;28;20201;-75
2023/08/29 06:41:31;;;;;;;9.43;4.25;;;;;;;26.37;41.77;93817.19;4180481;28;20185;-75
2023/08/29 06:43:32;;;;;;;13.77;4.93;;;;;;;26.52;41.44;93816.28;4181706;28;20429;-75
2023/08/29 06:45:34;;;;;;;8.00;4.15;;;;;;;26.53;41.01;93818.72;4184730;28;20059;-76
2023/08/29 06:47:36;;;;;;;6.20;3.72;;;;;;;26.58;40.49;93825.16;4169364;28;20038;-76
2023/08/29 06:49:37;;;;;;;8.52;4.30;;;;;;;26.66;40.64;93806.56;4182734;28;20415;-75
2023/08/29 06:51:41;;;;;;;7.57;3.70;;;;;;;26.72;40.90;93808.13;4180310;28;21087;-73
2023/08/29 06:53:43;;;;;;;9.27;3.60;;;;;;;26.82;40.62;93809.09;4192310;28;20469;-76
2023/08/29 06:55:46;;;;;;;6.93;3.90;;;;;;;26.76;40.66;93808.38;4182902;28;20099;-77
2023/08/29 06:57:48;;;;;;;11.27;3.83;;;;;;;26.80;40.46;93808.59;4188823;28;20064;-75
2023/08/29 06:59:50;;;;;;;6.28;3.90;;;;;;;26.80;40.16;93809.38;4163093;28;20053;-77
2023/08/29 07:01:52;;;;;;;14.20;4.30;;;;;;;26.93;40.43;93810.59;4175688;28;20068;-75
2023/08/29 07:03:54;;;;;;;7.53;4.25;;;;;;;27.11;40.33;93806.44;4176550;28;20124;-75
2023/08/29 07:05:56;;;;;;;7.85;4.32;;;;;;;27.12;39.43;93800.75;4190266;28;20135;-77
2023/08/29 07:07:59;;;;;;;9.48;3.40;;;;;;;27.20;39.52;93804.72;4190918;28;20452;-76
2023/08/29 07:10:02;;;;;;;11.55;4.35;;;;;;;27.33;39.46;93816.72;4201048;28;20105;-77
2023/08/29 07:12:04;;;;;;;;;;;;;;;27.41;39.82;93812.59;4195867;28;20059;-78
2023/08/29 07:14:06;;;;;;;8.23;4.60;;;;;;;27.49;39.80;93820.03;4192719;28;20405;-76
2023/08/29 07:16:08;;;;;;;8.05;4.53;;;;;;;27.13;39.40;93817.69;4193902;28;20076;-74
2023/08/29 07:18:10;;;;;;;5.50;3.92;;;;;;;27.06;39.60;93825.28;4187860;28;20110;-76
2023/08/29 07:20:13;;;;;;;7.10;4.07;;;;;;;26.96;39.91;93829.66;4190009;28;20049;-74
2023/08/29 07:22:16;;;;;;;10.88;5.05;;;;;;;27.00;40.34;93829.13;4193933;28;20044;-75
2023/08/29 07:24:25;;;;;;;8.10;4.55;;;;;;;26.43;40.84;93826.81;4189434;28;20329;-75
2023/08/29 07:26:26;;;;;;;8.27;4.38;;;;;;;26.12;41.33;93823.56;4186669;28;20045;-75
2023/08/29 07:28:28;;;;;;;11.70;4.82;;;;;;;26.05;41.90;93826.53;4182982;28;20063;-74
2023/08/29 07:30:30;;;;;;;6.95;4.20;;;;;;;26.23;41.38;93826.97;4175560;28;20056;-77
2023/08/29 07:32:32;;;;;;;11.32;4.40;;;;;;;26.53;41.12;93826.75;4194131;28;20051;-76
2023/08/29 07:34:34;;;;;;;8.60;4.40;;;;;;;26.84;40.52;93820.38;4175667;28;20146;-76
2023/08/29 07:36:36;;;;;;;7.57;4.47;;;;;;;27.16;39.72;93817.13;4192829;28;20056;-77
2023/08/29 07:38:37;;;;;;;15.30;7.15;;;;;;;27.41;39.72;93829.53;4183385;28;20051;-77
2023/08/29 07:40:39;;;;;;;8.95;5.00;;;;;;;27.58;39.08;93821.03;4164113;28;20084;-78
2023/08/29 07:42:41;;;;;;;9.07;4.63;;;;;;;27.64;39.29;93821.75;4194173;28;20070;-79
2023/08/29 07:44:43;;;;;;;10.65;4.35;;;;;;;27.63;38.84;93823.63;4193103;28;20126;-76
2023/08/29 07:46:45;;;;;;;5.63;4.05;;;;;;;27.74;39.05;93817.03;4191188;28;20059;-76
2023/08/29 07:49:10;;;;;;;5.85;4.15;;;;;;;27.91;38.32;93813.09;4194432;28;20517;-74
2023/08/29 07:51:11;;;;;;;10.05;5.20;;;;;;;28.00;38.37;93811.38;4194445;28;20040;-76
2023/08/29 07:53:13;;;;;;;8.25;4.40;;;;;;;28.04;38.30;93811.59;4192640;28;20374;-74
2023/08/29 07:55:15;;;;;;;7.25;4.43;;;;;;;28.18;38.46;93805.19;4191249;28;20488;-74
2023/08/29 07:57:17;;;;;;;9.52;4.60;;;;;;;28.18;37.69;93799.81;4186734;28;20109;-75
2023/08/29 07:59:19;;;;;;;8.35;4.63;;;;;;;28.23;38.03;93806.22;4193762;28;20052;-76
2023/08/29 08:01:21;;;;;;;11.13;4.45;;;;;;;28.08;37.59;93799.97;4190560;28;20070;-76
2023/08/29 08:03:23;;;;;;;8.02;4.80;;;;;;;28.17;38.33;93805.50;4181570;28;20155;-73
2023/08/29 08:05:24;;;;;;;6.45;4.70;;;;;;;28.29;37.71;93810.44;4184620;28;20045;-76
2023/08/29 08:07:26;;;;;;;10.43;4.25;;;;;;;28.09;37.91;93796.19;4186230;28;20128;-76
2023/08/29 08:09:28;;;;;;;9.43;4.50;;;;;;;27.84;38.39;93799.97;4190135;28;20052;-77
2023/08/29 08:11:30;;;;;;;8.68;4.80;;;;;;;28.05;38.65;93792.47;4188411;28;20127;-75
2023/08/29 08:13:34;;;;;;;11.35;4.60;;;;;;;28.40;38.07;93793.03;4191005;28;20058;-78
2023/08/29 08:15:36;;;;;;;10.57;4.80;;;;;;;28.53;37.35;93795.00;4185148;28;20060;-75
2023/08/29 08:17:38;;;;;;;6.65;4.60;;;;;;;28.61;37.03;93800.81;4173110;28;20081;-75
2023/08/29 08:19:40;;;;;;;6.97;4.53;;;;;;;28.60;37.36;93800.03;4170813;28;20076;-73
2023/08/29 08:21:42;;;;;;;8.20;4.95;;;;;;;28.54;37.44;93801.19;4174376;28;20103;-74
2023/08/29 08:23:43;;;;;;;9.23;4.50;;;;;;;28.53;37.47;93792.31;4172270;28;20084;-79
2023/08/29 08:25:45;;;;;;;10.88;4.90;;;;;;;28.61;37.17;93787.34;4173416;28;20053;-73
2023/08/29 08:27:47;;;;;;;8.90;4.82;;;;;;;28.39;37.18;93783.34;4195515;28;20044;-75
2023/08/29 08:29:49;;;;;;;8.48;4.57;;;;;;;28.37;37.69;93780.97;4179987;28;20151;-76
2023/08/29 08:31:51;;;;;;;8.55;4.78;;;;;;;28.37;37.30;93782.84;4192220;28;20569;-77
2023/08/29 08:33:56;;;;;;;7.93;4.65;;;;;;;28.45;37.09;93779.47;4195559;28;20048;-76
2023/08/29 08:35:57;;;;;;;7.22;4.43;;;;;;;28.69;36.92;93771.31;4176354;28;20349;-78
2023/08/29 08:37:59;;;;;;;8.77;5.25;;;;;;;28.81;37.13;93767.38;4197464;28;20151;-76
2023/08/29 08:40:10;;;;;;;18.48;5.00;;;;;;;28.69;36.74;93760.53;4186030;28;20460;-75
2023/08/29 08:42:15;;;;;;;9.85;5.93;;;;;;;28.81;36.69;93767.38;4184350;28;20137;-75
2023/08/29 08:44:23;;;;;;;14.85;7.30;;;;;;;28.96;36.23;93767.88;4162056;28;20068;-77
2023/08/29 08:46:25;;;;;;;12.98;7.45;;;;;;;29.16;36.05;93766.75;4159447;28;20053;-76
2023/08/29 08:48:28;;;;;;;10.45;5.78;;;;;;;29.40;35.75;93768.47;4193727;28;20044;-75
2023/08/29 08:50:30;;;;;;;6.78;4.50;;;;;;;29.28;35.73;93760.88;4176394;28;20051;-78
2023/08/29 08:52:33;;;;;;;7.53;4.60;;;;;;;29.23;35.72;93766.34;4191315;28;20040;-75
2023/08/29 08:54:35;;;;;;;17.60;4.80;;;;;;;29.47;35.71;93765.34;4196651;28;20048;-77
2023/08/29 08:56:38;;;;;;;6.80;4.30;;;;;;;29.60;35.25;93768.06;4196344;28;20479;-76
2023/08/29 08:58:40;;;;;;;7.30;4.60;;;;;;;29.39;35.38;93766.88;4176143;28;20060;-74
2023/08/29 09:00:42;;;;;;;9.65;4.70;;;;;;;28.87;36.13;93756.19;4194366;28;20052;-76
2023/08/29 09:02:45;;;;;;;8.27;4.57;;;;;;;29.02;36.42;93767.78;4190161;28;20451;-76
2023/08/29 09:04:46;;;;;;;8.85;4.55;;;;;;;29.11;35.82;93766.06;4162174;28;20208;-77
2023/08/29 09:06:48;;;;;;;9.68;5.07;;;;;;;29.19;35.71;93765.38;4194167;28;20131;-78
2023/08/29 09:08:51;;;;;;;8.32;4.60;;;;;;;29.22;35.86;93766.66;4169823;28;20323;-78
2023/08/29 09:10:53;;;;;;;7.45;4.63;;;;;;;29.30;35.73;93761.38;4188837;28;20053;-78
2023/08/29 09:12:57;;;;;;;17.70;4.95;;;;;;;29.16;35.74;93761.34;4198751;28;20048;-79
2023/08/29 09:15:03;;;;;;;12.75;4.63;;;;;;;28.95;35.81;93758.22;4183331;28;20459;-75
2023/08/29 09:17:05;;;;;;;6.68;4.68;;;;;;;28.68;36.42;93748.16;4195922;28;20040;-74
2023/08/29 09:19:07;;;;;;;10.63;5.20;;;;;;;28.59;36.47;93742.66;4193425;28;20437;-76
2023/08/29 09:21:20;;;;;;;9.30;4.70;;;;;;;28.58;36.74;93742.94;4175008;28;20064;-76
2023/08/29 09:23:24;;;;;;;8.73;4.97;;;;;;;28.64;36.58;93740.97;4162648;28;20054;-76
2023/08/29 09:25:26;;;;;;;12.43;4.70;;;;;;;28.39;37.08;93741.06;4178009;28;20128;-77
2023/08/29 09:27:28;;;;;;;8.30;4.97;;;;;;;28.54;37.30;93740.03;4192177;28;20372;-79
2023/08/29 09:29:30;;;;;;;6.78;4.60;;;;;;;28.67;37.26;93737.66;4195103;28;20048;-78
2023/08/29 09:31:32;;;;;;;8.90;4.72;;;;;;;28.81;37.01;93752.00;4177953;28;20041;-79
2023/08/29 09:33:34;;;;;;;7.38;4.90;;;;;;;28.94;36.78;93753.13;4177315;28;20084;-76
2023/08/29 09:35:36;;;;;;;11.18;5.68;;;;;;;29.08;36.51;93751.25;4194190;28;20048;-77